sensor_id;sensor_type;location;lat;lon;timestamp;P1;durP1;ratioP1;P2;durP2;ratioP2
3217;SDS011;1621;49.702;8.618;2023-07-24T00:00:58;5.40;;;3.33;;
3217;SDS011;1621;49.702;8.618;2023-07-24T00:03:24;5.27;;;3.13;;
3217;SDS011;1621;49.702;8.618;2023-07-24T00:05:51;4.83;;;3.20;;
3217;SDS011;1621;49.702;8.618;2023-07-24T00:08:18;7.63;;;3.37;;
3217;SDS011;1621;49.702;8.618;2023-07-24T00:10:44;6.07;;;3.87;;
3217;SDS011;1621;49.702;8.618;2023-07-24T00:13:10;4.77;;;2.90;;
3217;SDS011;1621;49.702;8.618;2023-07-24T00:15:38;6.57;;;3.30;;
3217;SDS011;1621;49.702;8.618;2023-07-24T00:18:04;5.20;;;3.40;;
3217;SDS011;1621;49.702;8.618;2023-07-24T00:20:30;6.87;;;3.70;;
3217;SDS011;1621;49.702;8.618;2023-07-24T00:22:58;5.43;;;3.57;;
3217;SDS011;1621;49.702;8.618;2023-07-24T00:25:24;6.83;;;3.73;;
3217;SDS011;1621;49.702;8.618;2023-07-24T00:27:51;5.70;;;3.70;;
3217;SDS011;1621;49.702;8.618;2023-07-24T00:30:17;7.77;;;3.87;;
3217;SDS011;1621;49.702;8.618;2023-07-24T00:32:43;6.37;;;3.80;;
3217;SDS011;1621;49.702;8.618;2023-07-24T00:35:10;5.47;;;3.43;;
3217;SDS011;1621;49.702;8.618;2023-07-24T00:37:36;10.40;;;3.80;;
3217;SDS011;1621;49.702;8.618;2023-07-24T00:40:04;5.70;;;3.40;;
3217;SDS011;1621;49.702;8.618;2023-07-24T00:42:31;5.90;;;3.90;;
3217;SDS011;1621;49.702;8.618;2023-07-24T00:44:57;6.20;;;4.47;;
3217;SDS011;1621;49.702;8.618;2023-07-24T00:47:23;7.50;;;4.60;;
3217;SDS011;1621;49.702;8.618;2023-07-24T00:49:51;6.27;;;4.10;;
3217;SDS011;1621;49.702;8.618;2023-07-24T00:52:17;7.10;;;5.20;;
3217;SDS011;1621;49.702;8.618;2023-07-24T00:54:43;5.97;;;4.60;;
3217;SDS011;1621;49.702;8.618;2023-07-24T00:57:12;7.97;;;4.50;;
3217;SDS011;1621;49.702;8.618;2023-07-24T00:59:39;6.43;;;4.30;;
3217;SDS011;1621;49.702;8.618;2023-07-24T01:02:07;7.80;;;4.90;;
3217;SDS011;1621;49.702;8.618;2023-07-24T01:04:33;6.70;;;4.73;;
3217;SDS011;1621;49.702;8.618;2023-07-24T01:06:59;8.97;;;5.03;;
3217;SDS011;1621;49.702;8.618;2023-07-24T01:09:26;8.70;;;5.30;;
3217;SDS011;1621;49.702;8.618;2023-07-24T01:11:54;7.40;;;4.70;;
3217;SDS011;1621;49.702;8.618;2023-07-24T01:14:24;7.93;;;5.30;;
3217;SDS011;1621;49.702;8.618;2023-07-24T01:16:52;8.67;;;5.30;;
3217;SDS011;1621;49.702;8.618;2023-07-24T01:19:20;7.00;;;4.80;;
3217;SDS011;1621;49.702;8.618;2023-07-24T01:21:52;6.77;;;4.70;;
3217;SDS011;1621;49.702;8.618;2023-07-24T01:24:24;7.50;;;5.07;;
3217;SDS011;1621;49.702;8.618;2023-07-24T01:26:56;7.30;;;5.10;;
3217;SDS011;1621;49.702;8.618;2023-07-24T01:29:23;7.00;;;5.03;;
3217;SDS011;1621;49.702;8.618;2023-07-24T01:31:49;7.90;;;5.03;;
3217;SDS011;1621;49.702;8.618;2023-07-24T01:34:16;6.53;;;4.50;;
3217;SDS011;1621;49.702;8.618;2023-07-24T01:36:42;7.40;;;4.30;;
3217;SDS011;1621;49.702;8.618;2023-07-24T01:39:08;8.20;;;5.40;;
3217;SDS011;1621;49.702;8.618;2023-07-24T01:41:35;7.90;;;5.30;;
3217;SDS011;1621;49.702;8.618;2023-07-24T01:44:03;6.90;;;4.73;;
3217;SDS011;1621;49.702;8.618;2023-07-24T01:46:31;8.20;;;5.00;;
3217;SDS011;1621;49.702;8.618;2023-07-24T01:48:57;6.37;;;4.50;;
3217;SDS011;1621;49.702;8.618;2023-07-24T01:51:23;7.67;;;5.23;;
3217;SDS011;1621;49.702;8.618;2023-07-24T01:53:49;10.13;;;4.80;;
3217;SDS011;1621;49.702;8.618;2023-07-24T01:56:16;6.97;;;3.93;;
3217;SDS011;1621;49.702;8.618;2023-07-24T01:58:42;9.00;;;5.57;;
3217;SDS011;1621;49.702;8.618;2023-07-24T02:01:10;6.23;;;4.53;;
3217;SDS011;1621;49.702;8.618;2023-07-24T02:03:36;7.90;;;4.90;;
3217;SDS011;1621;49.702;8.618;2023-07-24T02:06:04;7.57;;;4.67;;
3217;SDS011;1621;49.702;8.618;2023-07-24T02:08:30;7.00;;;4.80;;
3217;SDS011;1621;49.702;8.618;2023-07-24T02:10:56;6.73;;;4.47;;
3217;SDS011;1621;49.702;8.618;2023-07-24T02:13:23;7.60;;;5.90;;
3217;SDS011;1621;49.702;8.618;2023-07-24T02:15:49;8.37;;;5.40;;
3217;SDS011;1621;49.702;8.618;2023-07-24T02:18:17;9.60;;;5.47;;
3217;SDS011;1621;49.702;8.618;2023-07-24T02:20:48;10.43;;;6.00;;
3217;SDS011;1621;49.702;8.618;2023-07-24T02:23:14;8.00;;;5.30;;
3217;SDS011;1621;49.702;8.618;2023-07-24T02:25:40;7.50;;;4.97;;
3217;SDS011;1621;49.702;8.618;2023-07-24T02:28:08;6.93;;;5.03;;
3217;SDS011;1621;49.702;8.618;2023-07-24T02:30:37;7.07;;;4.67;;
3217;SDS011;1621;49.702;8.618;2023-07-24T02:33:03;7.33;;;4.97;;
3217;SDS011;1621;49.702;8.618;2023-07-24T02:35:30;7.60;;;5.20;;
3217;SDS011;1621;49.702;8.618;2023-07-24T02:37:57;7.77;;;5.33;;
3217;SDS011;1621;49.702;8.618;2023-07-24T02:40:23;8.43;;;4.97;;
3217;SDS011;1621;49.702;8.618;2023-07-24T02:42:49;6.93;;;4.70;;
3217;SDS011;1621;49.702;8.618;2023-07-24T02:45:16;9.03;;;5.70;;
3217;SDS011;1621;49.702;8.618;2023-07-24T02:47:42;8.43;;;4.80;;
3217;SDS011;1621;49.702;8.618;2023-07-24T02:50:08;7.47;;;5.17;;
3217;SDS011;1621;49.702;8.618;2023-07-24T02:52:36;11.20;;;4.87;;
3217;SDS011;1621;49.702;8.618;2023-07-24T02:55:02;6.90;;;4.83;;
3217;SDS011;1621;49.702;8.618;2023-07-24T02:57:29;7.90;;;5.30;;
3217;SDS011;1621;49.702;8.618;2023-07-24T02:59:55;8.00;;;5.27;;
3217;SDS011;1621;49.702;8.618;2023-07-24T03:02:21;9.00;;;5.40;;
3217;SDS011;1621;49.702;8.618;2023-07-24T03:04:48;6.77;;;5.10;;
3217;SDS011;1621;49.702;8.618;2023-07-24T03:07:14;7.40;;;5.00;;
3217;SDS011;1621;49.702;8.618;2023-07-24T03:09:41;6.53;;;4.40;;
3217;SDS011;1621;49.702;8.618;2023-07-24T03:12:08;9.33;;;5.77;;
3217;SDS011;1621;49.702;8.618;2023-07-24T03:14:34;7.50;;;5.20;;
3217;SDS011;1621;49.702;8.618;2023-07-24T03:17:00;21.77;;;8.00;;
3217;SDS011;1621;49.702;8.618;2023-07-24T03:19:26;24.77;;;8.10;;
3217;SDS011;1621;49.702;8.618;2023-07-24T03:21:53;15.87;;;6.00;;
3217;SDS011;1621;49.702;8.618;2023-07-24T03:24:19;8.03;;;5.20;;
3217;SDS011;1621;49.702;8.618;2023-07-24T03:26:47;8.73;;;5.20;;
3217;SDS011;1621;49.702;8.618;2023-07-24T03:29:13;9.07;;;5.40;;
3217;SDS011;1621;49.702;8.618;2023-07-24T03:31:39;11.70;;;6.50;;
3217;SDS011;1621;49.702;8.618;2023-07-24T03:34:05;12.30;;;5.57;;
3217;SDS011;1621;49.702;8.618;2023-07-24T03:36:33;13.57;;;6.40;;
3217;SDS011;1621;49.702;8.618;2023-07-24T03:39:00;14.80;;;6.80;;
3217;SDS011;1621;49.702;8.618;2023-07-24T03:41:27;12.10;;;6.20;;
3217;SDS011;1621;49.702;8.618;2023-07-24T03:43:55;7.37;;;5.33;;
3217;SDS011;1621;49.702;8.618;2023-07-24T03:46:21;10.03;;;6.53;;
3217;SDS011;1621;49.702;8.618;2023-07-24T03:48:47;10.60;;;5.83;;
3217;SDS011;1621;49.702;8.618;2023-07-24T03:51:15;7.20;;;4.73;;
3217;SDS011;1621;49.702;8.618;2023-07-24T03:53:41;8.77;;;6.00;;
3217;SDS011;1621;49.702;8.618;2023-07-24T03:56:08;9.23;;;6.03;;
3217;SDS011;1621;49.702;8.618;2023-07-24T03:58:34;8.07;;;5.47;;
3217;SDS011;1621;49.702;8.618;2023-07-24T04:01:01;9.00;;;5.00;;
3217;SDS011;1621;49.702;8.618;2023-07-24T04:03:28;6.93;;;5.03;;
3217;SDS011;1621;49.702;8.618;2023-07-24T04:05:54;7.80;;;5.53;;
3217;SDS011;1621;49.702;8.618;2023-07-24T04:08:20;8.40;;;6.00;;
3217;SDS011;1621;49.702;8.618;2023-07-24T04:10:47;7.77;;;5.20;;
3217;SDS011;1621;49.702;8.618;2023-07-24T04:13:13;9.50;;;6.03;;
3217;SDS011;1621;49.702;8.618;2023-07-24T04:15:39;7.50;;;4.80;;
3217;SDS011;1621;49.702;8.618;2023-07-24T04:18:07;10.10;;;5.70;;
3217;SDS011;1621;49.702;8.618;2023-07-24T04:20:33;10.37;;;6.17;;
3217;SDS011;1621;49.702;8.618;2023-07-24T04:22:59;14.20;;;5.87;;
3217;SDS011;1621;49.702;8.618;2023-07-24T04:25:25;8.40;;;5.50;;
3217;SDS011;1621;49.702;8.618;2023-07-24T04:27:52;8.67;;;5.97;;
3217;SDS011;1621;49.702;8.618;2023-07-24T04:30:18;8.73;;;5.43;;
3217;SDS011;1621;49.702;8.618;2023-07-24T04:32:44;13.03;;;5.63;;
3217;SDS011;1621;49.702;8.618;2023-07-24T04:35:12;9.10;;;6.00;;
3217;SDS011;1621;49.702;8.618;2023-07-24T04:37:38;7.60;;;5.43;;
3217;SDS011;1621;49.702;8.618;2023-07-24T04:40:05;9.50;;;5.33;;
3217;SDS011;1621;49.702;8.618;2023-07-24T04:42:31;8.43;;;5.80;;
3217;SDS011;1621;49.702;8.618;2023-07-24T04:44:58;8.97;;;5.73;;
3217;SDS011;1621;49.702;8.618;2023-07-24T04:47:24;8.90;;;6.10;;
3217;SDS011;1621;49.702;8.618;2023-07-24T04:49:50;10.17;;;5.77;;
3217;SDS011;1621;49.702;8.618;2023-07-24T04:52:18;7.80;;;5.50;;
3217;SDS011;1621;49.702;8.618;2023-07-24T04:54:44;9.13;;;6.03;;
3217;SDS011;1621;49.702;8.618;2023-07-24T04:57:10;9.33;;;5.90;;
3217;SDS011;1621;49.702;8.618;2023-07-24T04:59:37;10.87;;;5.83;;
3217;SDS011;1621;49.702;8.618;2023-07-24T05:02:03;8.00;;;5.50;;
3217;SDS011;1621;49.702;8.618;2023-07-24T05:04:29;10.37;;;5.87;;
3217;SDS011;1621;49.702;8.618;2023-07-24T05:06:56;10.70;;;5.70;;
3217;SDS011;1621;49.702;8.618;2023-07-24T05:09:23;9.23;;;5.90;;
3217;SDS011;1621;49.702;8.618;2023-07-24T05:11:49;10.90;;;6.03;;
3217;SDS011;1621;49.702;8.618;2023-07-24T05:14:16;8.17;;;6.13;;
3217;SDS011;1621;49.702;8.618;2023-07-24T05:16:42;11.13;;;5.90;;
3217;SDS011;1621;49.702;8.618;2023-07-24T05:19:08;9.30;;;5.87;;
3217;SDS011;1621;49.702;8.618;2023-07-24T05:21:35;9.63;;;5.47;;
3217;SDS011;1621;49.702;8.618;2023-07-24T05:24:01;8.50;;;5.63;;
3217;SDS011;1621;49.702;8.618;2023-07-24T05:26:28;8.70;;;5.00;;
3217;SDS011;1621;49.702;8.618;2023-07-24T05:28:55;8.90;;;5.40;;
3217;SDS011;1621;49.702;8.618;2023-07-24T05:31:21;12.37;;;6.00;;
3217;SDS011;1621;49.702;8.618;2023-07-24T05:33:47;9.10;;;6.70;;
3217;SDS011;1621;49.702;8.618;2023-07-24T05:36:13;7.70;;;5.60;;
3217;SDS011;1621;49.702;8.618;2023-07-24T05:38:40;7.80;;;5.30;;
3217;SDS011;1621;49.702;8.618;2023-07-24T05:41:06;8.47;;;5.50;;
3217;SDS011;1621;49.702;8.618;2023-07-24T05:43:34;13.10;;;5.70;;
3217;SDS011;1621;49.702;8.618;2023-07-24T05:46:00;7.73;;;5.27;;
3217;SDS011;1621;49.702;8.618;2023-07-24T05:48:26;10.77;;;6.17;;
3217;SDS011;1621;49.702;8.618;2023-07-24T05:50:52;9.10;;;5.40;;
3217;SDS011;1621;49.702;8.618;2023-07-24T05:53:19;9.97;;;5.93;;
3217;SDS011;1621;49.702;8.618;2023-07-24T05:55:45;8.83;;;5.47;;
3217;SDS011;1621;49.702;8.618;2023-07-24T05:58:11;9.00;;;6.30;;
3217;SDS011;1621;49.702;8.618;2023-07-24T06:00:39;11.87;;;6.73;;
3217;SDS011;1621;49.702;8.618;2023-07-24T06:03:05;11.00;;;5.73;;
3217;SDS011;1621;49.702;8.618;2023-07-24T06:05:31;9.10;;;6.07;;
3217;SDS011;1621;49.702;8.618;2023-07-24T06:07:57;8.23;;;5.47;;
3217;SDS011;1621;49.702;8.618;2023-07-24T06:10:24;12.00;;;6.83;;
3217;SDS011;1621;49.702;8.618;2023-07-24T06:12:50;15.80;;;6.80;;
3217;SDS011;1621;49.702;8.618;2023-07-24T06:15:16;10.73;;;6.60;;
3217;SDS011;1621;49.702;8.618;2023-07-24T06:17:44;10.50;;;6.17;;
3217;SDS011;1621;49.702;8.618;2023-07-24T06:20:10;14.20;;;6.17;;
3217;SDS011;1621;49.702;8.618;2023-07-24T06:22:36;10.90;;;6.73;;
3217;SDS011;1621;49.702;8.618;2023-07-24T06:25:03;9.87;;;6.67;;
3217;SDS011;1621;49.702;8.618;2023-07-24T06:27:29;10.17;;;6.60;;
3217;SDS011;1621;49.702;8.618;2023-07-24T06:29:56;10.57;;;7.10;;
3217;SDS011;1621;49.702;8.618;2023-07-24T06:32:22;10.40;;;6.50;;
3217;SDS011;1621;49.702;8.618;2023-07-24T06:34:49;9.20;;;6.17;;
3217;SDS011;1621;49.702;8.618;2023-07-24T06:37:16;9.17;;;6.30;;
3217;SDS011;1621;49.702;8.618;2023-07-24T06:39:42;11.07;;;6.50;;
3217;SDS011;1621;49.702;8.618;2023-07-24T06:42:08;11.37;;;7.23;;
3217;SDS011;1621;49.702;8.618;2023-07-24T06:44:35;11.00;;;6.63;;
3217;SDS011;1621;49.702;8.618;2023-07-24T06:47:01;10.77;;;6.80;;
3217;SDS011;1621;49.702;8.618;2023-07-24T06:49:27;16.17;;;6.50;;
3217;SDS011;1621;49.702;8.618;2023-07-24T06:51:55;11.77;;;6.07;;
3217;SDS011;1621;49.702;8.618;2023-07-24T06:54:21;10.90;;;6.87;;
3217;SDS011;1621;49.702;8.618;2023-07-24T06:56:47;11.43;;;7.47;;
3217;SDS011;1621;49.702;8.618;2023-07-24T06:59:14;14.37;;;6.83;;
3217;SDS011;1621;49.702;8.618;2023-07-24T07:01:40;11.93;;;6.63;;
3217;SDS011;1621;49.702;8.618;2023-07-24T07:04:06;8.73;;;6.20;;
3217;SDS011;1621;49.702;8.618;2023-07-24T07:06:32;12.37;;;6.27;;
3217;SDS011;1621;49.702;8.618;2023-07-24T07:09:00;11.57;;;7.00;;
3217;SDS011;1621;49.702;8.618;2023-07-24T07:11:26;11.13;;;7.33;;
3217;SDS011;1621;49.702;8.618;2023-07-24T07:13:53;11.30;;;7.00;;
3217;SDS011;1621;49.702;8.618;2023-07-24T07:16:19;13.20;;;7.23;;
3217;SDS011;1621;49.702;8.618;2023-07-24T07:18:45;10.30;;;6.80;;
3217;SDS011;1621;49.702;8.618;2023-07-24T07:21:11;12.03;;;7.23;;
3217;SDS011;1621;49.702;8.618;2023-07-24T07:23:38;9.87;;;6.53;;
3217;SDS011;1621;49.702;8.618;2023-07-24T07:26:05;12.03;;;6.70;;
3217;SDS011;1621;49.702;8.618;2023-07-24T07:28:32;15.00;;;7.33;;
3217;SDS011;1621;49.702;8.618;2023-07-24T07:30:58;19.23;;;7.57;;
3217;SDS011;1621;49.702;8.618;2023-07-24T07:33:24;11.10;;;7.27;;
3217;SDS011;1621;49.702;8.618;2023-07-24T07:35:50;11.00;;;7.30;;
3217;SDS011;1621;49.702;8.618;2023-07-24T07:38:17;11.93;;;7.47;;
3217;SDS011;1621;49.702;8.618;2023-07-24T07:40:43;10.30;;;6.70;;
3217;SDS011;1621;49.702;8.618;2023-07-24T07:43:10;10.40;;;6.37;;
3217;SDS011;1621;49.702;8.618;2023-07-24T07:45:37;14.70;;;7.50;;
3217;SDS011;1621;49.702;8.618;2023-07-24T07:48:03;11.80;;;8.00;;
3217;SDS011;1621;49.702;8.618;2023-07-24T07:50:30;11.37;;;7.13;;
3217;SDS011;1621;49.702;8.618;2023-07-24T07:52:57;13.03;;;7.50;;
3217;SDS011;1621;49.702;8.618;2023-07-24T07:55:23;10.50;;;6.57;;
3217;SDS011;1621;49.702;8.618;2023-07-24T07:57:49;10.43;;;7.00;;
3217;SDS011;1621;49.702;8.618;2023-07-24T08:00:17;9.77;;;7.20;;
3217;SDS011;1621;49.702;8.618;2023-07-24T08:02:43;10.07;;;6.73;;
3217;SDS011;1621;49.702;8.618;2023-07-24T08:05:10;11.60;;;7.67;;
3217;SDS011;1621;49.702;8.618;2023-07-24T08:07:36;10.03;;;7.03;;
3217;SDS011;1621;49.702;8.618;2023-07-24T08:10:03;9.97;;;6.93;;
3217;SDS011;1621;49.702;8.618;2023-07-24T08:12:29;9.00;;;6.10;;
3217;SDS011;1621;49.702;8.618;2023-07-24T08:14:55;11.60;;;6.97;;
3217;SDS011;1621;49.702;8.618;2023-07-24T08:17:23;13.10;;;7.50;;
3217;SDS011;1621;49.702;8.618;2023-07-24T08:19:49;9.87;;;7.20;;
3217;SDS011;1621;49.702;8.618;2023-07-24T08:22:16;9.40;;;6.53;;
3217;SDS011;1621;49.702;8.618;2023-07-24T08:24:43;10.37;;;6.93;;
3217;SDS011;1621;49.702;8.618;2023-07-24T08:27:10;9.33;;;6.30;;
3217;SDS011;1621;49.702;8.618;2023-07-24T08:29:36;13.33;;;6.50;;
3217;SDS011;1621;49.702;8.618;2023-07-24T08:32:03;9.97;;;7.10;;
3217;SDS011;1621;49.702;8.618;2023-07-24T08:34:31;8.10;;;5.90;;
3217;SDS011;1621;49.702;8.618;2023-07-24T08:36:57;10.03;;;6.07;;
3217;SDS011;1621;49.702;8.618;2023-07-24T08:39:23;9.60;;;6.30;;
3217;SDS011;1621;49.702;8.618;2023-07-24T08:41:49;9.70;;;6.90;;
3217;SDS011;1621;49.702;8.618;2023-07-24T08:44:16;10.43;;;6.47;;
3217;SDS011;1621;49.702;8.618;2023-07-24T08:46:42;8.80;;;6.47;;
3217;SDS011;1621;49.702;8.618;2023-07-24T08:49:11;12.80;;;6.70;;
3217;SDS011;1621;49.702;8.618;2023-07-24T08:51:39;10.23;;;6.93;;
3217;SDS011;1621;49.702;8.618;2023-07-24T08:54:05;9.93;;;7.13;;
3217;SDS011;1621;49.702;8.618;2023-07-24T08:56:31;10.93;;;7.47;;
3217;SDS011;1621;49.702;8.618;2023-07-24T08:58:58;9.33;;;6.43;;
3217;SDS011;1621;49.702;8.618;2023-07-24T09:01:24;11.43;;;6.07;;
3217;SDS011;1621;49.702;8.618;2023-07-24T09:03:51;9.40;;;6.40;;
3217;SDS011;1621;49.702;8.618;2023-07-24T09:06:17;9.63;;;6.80;;
3217;SDS011;1621;49.702;8.618;2023-07-24T09:08:44;9.77;;;6.67;;
3217;SDS011;1621;49.702;8.618;2023-07-24T09:11:13;11.10;;;6.73;;
3217;SDS011;1621;49.702;8.618;2023-07-24T09:13:40;8.70;;;6.40;;
3217;SDS011;1621;49.702;8.618;2023-07-24T09:16:07;11.13;;;7.13;;
3217;SDS011;1621;49.702;8.618;2023-07-24T09:18:40;8.53;;;6.00;;
3217;SDS011;1621;49.702;8.618;2023-07-24T09:21:06;11.33;;;7.20;;
3217;SDS011;1621;49.702;8.618;2023-07-24T09:23:33;10.30;;;6.80;;
3217;SDS011;1621;49.702;8.618;2023-07-24T09:26:04;9.10;;;6.20;;
3217;SDS011;1621;49.702;8.618;2023-07-24T09:28:30;9.57;;;6.10;;
3217;SDS011;1621;49.702;8.618;2023-07-24T09:30:57;10.03;;;6.60;;
3217;SDS011;1621;49.702;8.618;2023-07-24T09:33:33;10.90;;;7.20;;
3217;SDS011;1621;49.702;8.618;2023-07-24T09:36:00;8.70;;;6.47;;
3217;SDS011;1621;49.702;8.618;2023-07-24T09:38:26;11.47;;;6.90;;
3217;SDS011;1621;49.702;8.618;2023-07-24T09:40:53;11.30;;;6.97;;
3217;SDS011;1621;49.702;8.618;2023-07-24T09:43:23;9.00;;;6.00;;
3217;SDS011;1621;49.702;8.618;2023-07-24T09:45:50;8.63;;;5.70;;
3217;SDS011;1621;49.702;8.618;2023-07-24T09:48:17;14.13;;;6.93;;
3217;SDS011;1621;49.702;8.618;2023-07-24T09:50:44;9.47;;;6.40;;
3217;SDS011;1621;49.702;8.618;2023-07-24T09:53:12;10.20;;;6.60;;
3217;SDS011;1621;49.702;8.618;2023-07-24T09:55:42;9.10;;;6.20;;
3217;SDS011;1621;49.702;8.618;2023-07-24T09:58:09;8.63;;;6.00;;
3217;SDS011;1621;49.702;8.618;2023-07-24T10:00:38;11.80;;;6.23;;
3217;SDS011;1621;49.702;8.618;2023-07-24T10:03:04;8.93;;;6.50;;
3217;SDS011;1621;49.702;8.618;2023-07-24T10:05:30;12.03;;;6.40;;
3217;SDS011;1621;49.702;8.618;2023-07-24T10:07:57;12.00;;;6.33;;
3217;SDS011;1621;49.702;8.618;2023-07-24T10:10:23;11.17;;;7.20;;
3217;SDS011;1621;49.702;8.618;2023-07-24T10:12:52;10.03;;;6.70;;
3217;SDS011;1621;49.702;8.618;2023-07-24T10:15:18;9.07;;;6.37;;
3217;SDS011;1621;49.702;8.618;2023-07-24T10:17:46;12.53;;;6.80;;
3217;SDS011;1621;49.702;8.618;2023-07-24T10:20:12;8.20;;;5.57;;
3217;SDS011;1621;49.702;8.618;2023-07-24T10:22:40;10.17;;;6.23;;
3217;SDS011;1621;49.702;8.618;2023-07-24T10:25:07;9.77;;;6.43;;
3217;SDS011;1621;49.702;8.618;2023-07-24T10:27:35;11.63;;;5.80;;
3217;SDS011;1621;49.702;8.618;2023-07-24T10:30:02;10.37;;;7.20;;
3217;SDS011;1621;49.702;8.618;2023-07-24T10:32:28;9.13;;;6.70;;
3217;SDS011;1621;49.702;8.618;2023-07-24T10:34:57;9.73;;;6.70;;
3217;SDS011;1621;49.702;8.618;2023-07-24T10:37:30;9.00;;;6.27;;
3217;SDS011;1621;49.702;8.618;2023-07-24T10:39:57;9.07;;;6.40;;
3217;SDS011;1621;49.702;8.618;2023-07-24T10:42:23;9.93;;;6.70;;
3217;SDS011;1621;49.702;8.618;2023-07-24T10:44:49;14.17;;;6.40;;
3217;SDS011;1621;49.702;8.618;2023-07-24T10:47:16;15.70;;;6.50;;
3217;SDS011;1621;49.702;8.618;2023-07-24T10:49:49;10.57;;;6.70;;
3217;SDS011;1621;49.702;8.618;2023-07-24T10:52:16;9.43;;;5.57;;
3217;SDS011;1621;49.702;8.618;2023-07-24T10:54:43;10.03;;;6.87;;
3217;SDS011;1621;49.702;8.618;2023-07-24T10:57:09;13.40;;;6.30;;
3217;SDS011;1621;49.702;8.618;2023-07-24T10:59:36;10.10;;;6.23;;
3217;SDS011;1621;49.702;8.618;2023-07-24T11:02:03;9.73;;;6.57;;
3217;SDS011;1621;49.702;8.618;2023-07-24T11:04:30;10.33;;;6.40;;
3217;SDS011;1621;49.702;8.618;2023-07-24T11:06:56;10.93;;;6.83;;
3217;SDS011;1621;49.702;8.618;2023-07-24T11:09:32;9.53;;;6.17;;
3217;SDS011;1621;49.702;8.618;2023-07-24T11:11:59;12.30;;;6.90;;
3217;SDS011;1621;49.702;8.618;2023-07-24T11:14:25;11.67;;;6.87;;
3217;SDS011;1621;49.702;8.618;2023-07-24T11:16:52;9.90;;;6.53;;
3217;SDS011;1621;49.702;8.618;2023-07-24T11:19:22;9.10;;;6.23;;
3217;SDS011;1621;49.702;8.618;2023-07-24T11:21:48;8.27;;;5.63;;
3217;SDS011;1621;49.702;8.618;2023-07-24T11:24:14;11.93;;;6.47;;
3217;SDS011;1621;49.702;8.618;2023-07-24T11:26:44;8.90;;;5.80;;
3217;SDS011;1621;49.702;8.618;2023-07-24T11:29:11;8.27;;;5.70;;
3217;SDS011;1621;49.702;8.618;2023-07-24T11:31:37;7.43;;;5.57;;
3217;SDS011;1621;49.702;8.618;2023-07-24T11:34:04;9.33;;;5.97;;
3217;SDS011;1621;49.702;8.618;2023-07-24T11:36:31;9.37;;;5.10;;
3217;SDS011;1621;49.702;8.618;2023-07-24T11:38:57;12.20;;;6.13;;
3217;SDS011;1621;49.702;8.618;2023-07-24T11:41:25;7.90;;;6.10;;
3217;SDS011;1621;49.702;8.618;2023-07-24T11:43:53;9.23;;;7.00;;
3217;SDS011;1621;49.702;8.618;2023-07-24T11:46:22;9.23;;;6.33;;
3217;SDS011;1621;49.702;8.618;2023-07-24T11:48:49;8.43;;;5.73;;
3217;SDS011;1621;49.702;8.618;2023-07-24T11:51:18;10.30;;;5.70;;
3217;SDS011;1621;49.702;8.618;2023-07-24T11:53:44;10.47;;;6.33;;
3217;SDS011;1621;49.702;8.618;2023-07-24T11:56:13;9.33;;;5.77;;
3217;SDS011;1621;49.702;8.618;2023-07-24T11:58:39;8.67;;;5.60;;
3217;SDS011;1621;49.702;8.618;2023-07-24T12:01:07;11.13;;;5.97;;
3217;SDS011;1621;49.702;8.618;2023-07-24T12:03:33;9.27;;;5.80;;
3217;SDS011;1621;49.702;8.618;2023-07-24T12:05:59;10.10;;;6.10;;
3217;SDS011;1621;49.702;8.618;2023-07-24T12:08:29;9.67;;;5.90;;
3217;SDS011;1621;49.702;8.618;2023-07-24T12:10:56;9.10;;;6.20;;
3217;SDS011;1621;49.702;8.618;2023-07-24T12:13:22;8.50;;;5.67;;
3217;SDS011;1621;49.702;8.618;2023-07-24T12:15:49;8.60;;;6.23;;
3217;SDS011;1621;49.702;8.618;2023-07-24T12:18:16;13.50;;;6.47;;
3217;SDS011;1621;49.702;8.618;2023-07-24T12:20:43;11.30;;;6.60;;
3217;SDS011;1621;49.702;8.618;2023-07-24T12:23:09;7.90;;;5.97;;
3217;SDS011;1621;49.702;8.618;2023-07-24T12:25:35;10.80;;;6.80;;
3217;SDS011;1621;49.702;8.618;2023-07-24T12:28:01;9.60;;;6.60;;
3217;SDS011;1621;49.702;8.618;2023-07-24T12:30:28;10.47;;;5.93;;
3217;SDS011;1621;49.702;8.618;2023-07-24T12:32:54;8.63;;;5.97;;
3217;SDS011;1621;49.702;8.618;2023-07-24T12:35:21;8.63;;;6.10;;
3217;SDS011;1621;49.702;8.618;2023-07-24T12:37:48;8.73;;;6.10;;
3217;SDS011;1621;49.702;8.618;2023-07-24T12:40:14;12.83;;;6.70;;
3217;SDS011;1621;49.702;8.618;2023-07-24T12:42:40;8.07;;;5.90;;
3217;SDS011;1621;49.702;8.618;2023-07-24T12:45:07;9.17;;;6.47;;
3217;SDS011;1621;49.702;8.618;2023-07-24T12:47:33;7.73;;;5.93;;
3217;SDS011;1621;49.702;8.618;2023-07-24T12:49:59;10.23;;;6.70;;
3217;SDS011;1621;49.702;8.618;2023-07-24T12:52:28;10.30;;;5.53;;
3217;SDS011;1621;49.702;8.618;2023-07-24T12:54:55;9.10;;;6.17;;
3217;SDS011;1621;49.702;8.618;2023-07-24T12:57:21;9.27;;;6.30;;
3217;SDS011;1621;49.702;8.618;2023-07-24T12:59:47;8.63;;;5.57;;
3217;SDS011;1621;49.702;8.618;2023-07-24T13:02:13;8.70;;;6.50;;
3217;SDS011;1621;49.702;8.618;2023-07-24T13:04:39;8.17;;;5.90;;
3217;SDS011;1621;49.702;8.618;2023-07-24T13:07:06;8.53;;;6.10;;
3217;SDS011;1621;49.702;8.618;2023-07-24T13:09:33;7.70;;;5.60;;
3217;SDS011;1621;49.702;8.618;2023-07-24T13:12:00;7.80;;;5.77;;
3217;SDS011;1621;49.702;8.618;2023-07-24T13:14:26;8.30;;;5.73;;
3217;SDS011;1621;49.702;8.618;2023-07-24T13:16:52;9.90;;;5.50;;
3217;SDS011;1621;49.702;8.618;2023-07-24T13:19:18;10.20;;;6.23;;
3217;SDS011;1621;49.702;8.618;2023-07-24T13:21:45;8.60;;;6.40;;
3217;SDS011;1621;49.702;8.618;2023-07-24T13:24:12;7.60;;;5.90;;
3217;SDS011;1621;49.702;8.618;2023-07-24T13:26:39;12.20;;;6.07;;
3217;SDS011;1621;49.702;8.618;2023-07-24T13:29:06;9.20;;;6.67;;
3217;SDS011;1621;49.702;8.618;2023-07-24T13:31:32;9.67;;;6.07;;
3217;SDS011;1621;49.702;8.618;2023-07-24T13:33:59;9.53;;;6.47;;
3217;SDS011;1621;49.702;8.618;2023-07-24T13:36:25;10.00;;;6.70;;
3217;SDS011;1621;49.702;8.618;2023-07-24T13:38:51;8.60;;;6.20;;
3217;SDS011;1621;49.702;8.618;2023-07-24T13:41:17;13.40;;;7.27;;
3217;SDS011;1621;49.702;8.618;2023-07-24T13:43:45;11.80;;;6.90;;
3217;SDS011;1621;49.702;8.618;2023-07-24T13:46:12;11.00;;;6.57;;
3217;SDS011;1621;49.702;8.618;2023-07-24T13:48:38;8.90;;;6.70;;
3217;SDS011;1621;49.702;8.618;2023-07-24T13:51:04;9.13;;;6.60;;
3217;SDS011;1621;49.702;8.618;2023-07-24T13:53:31;10.80;;;7.10;;
3217;SDS011;1621;49.702;8.618;2023-07-24T13:55:57;10.30;;;6.70;;
3217;SDS011;1621;49.702;8.618;2023-07-24T13:58:23;8.13;;;6.27;;
3217;SDS011;1621;49.702;8.618;2023-07-24T14:00:51;8.90;;;6.70;;
3217;SDS011;1621;49.702;8.618;2023-07-24T14:03:17;10.10;;;6.87;;
3217;SDS011;1621;49.702;8.618;2023-07-24T14:05:43;9.57;;;6.47;;
3217;SDS011;1621;49.702;8.618;2023-07-24T14:08:09;8.53;;;5.90;;
3217;SDS011;1621;49.702;8.618;2023-07-24T14:10:36;11.30;;;6.10;;
3217;SDS011;1621;49.702;8.618;2023-07-24T14:13:03;10.47;;;6.30;;
3217;SDS011;1621;49.702;8.618;2023-07-24T14:15:29;7.53;;;4.93;;
3217;SDS011;1621;49.702;8.618;2023-07-24T14:17:57;10.97;;;6.53;;
3217;SDS011;1621;49.702;8.618;2023-07-24T14:20:23;10.60;;;6.70;;
3217;SDS011;1621;49.702;8.618;2023-07-24T14:22:49;8.83;;;6.20;;
3217;SDS011;1621;49.702;8.618;2023-07-24T14:25:15;11.17;;;7.33;;
3217;SDS011;1621;49.702;8.618;2023-07-24T14:27:42;6.80;;;5.07;;
3217;SDS011;1621;49.702;8.618;2023-07-24T14:30:08;7.23;;;5.07;;
3217;SDS011;1621;49.702;8.618;2023-07-24T14:32:35;9.60;;;5.53;;
3217;SDS011;1621;49.702;8.618;2023-07-24T14:35:03;11.13;;;5.53;;
3217;SDS011;1621;49.702;8.618;2023-07-24T14:37:29;8.47;;;5.40;;
3217;SDS011;1621;49.702;8.618;2023-07-24T14:39:56;20.43;;;5.67;;
3217;SDS011;1621;49.702;8.618;2023-07-24T14:42:22;11.37;;;5.33;;
3217;SDS011;1621;49.702;8.618;2023-07-24T14:44:48;7.30;;;5.70;;
3217;SDS011;1621;49.702;8.618;2023-07-24T14:47:15;7.90;;;5.30;;
3217;SDS011;1621;49.702;8.618;2023-07-24T14:49:41;10.80;;;5.27;;
3217;SDS011;1621;49.702;8.618;2023-07-24T14:52:08;6.90;;;4.73;;
3217;SDS011;1621;49.702;8.618;2023-07-24T14:54:35;6.53;;;4.27;;
3217;SDS011;1621;49.702;8.618;2023-07-24T14:57:01;8.10;;;4.70;;
3217;SDS011;1621;49.702;8.618;2023-07-24T14:59:28;8.53;;;5.27;;
3217;SDS011;1621;49.702;8.618;2023-07-24T15:01:54;7.93;;;4.67;;
3217;SDS011;1621;49.702;8.618;2023-07-24T15:04:20;7.00;;;4.80;;
3217;SDS011;1621;49.702;8.618;2023-07-24T15:06:47;6.17;;;4.90;;